Time;durP1;ratioP1;P1;durP2;ratioP2;P2;SDS_P1;SDS_P2;PMS_P1;PMS_P2;Temp;Humidity;BMP_temperature;BMP_pressure;BME280_temperature;BME280_humidity;BME280_pressure;Samples;Min_cycle;Max_cycle;Signal;HPM_P1;HPM_P2
2023/08/08 00:00:49;;;;;;;2.37;1.00;;;;;;;14.80;81.33;98901.09;5055677;28;41062;-83
2023/08/08 00:03:17;;;;;;;2.40;1.30;;;;;;;14.84;81.56;98914.03;5073814;28;42005;-83
2023/08/08 00:05:45;;;;;;;2.20;1.60;;;;;;;14.80;81.57;98901.09;5056615;28;41598;-84
2023/08/08 00:08:12;;;;;;;5.03;1.30;;;;;;;14.77;81.97;98901.31;5057231;28;39397;-85
2023/08/08 00:10:40;;;;;;;1.60;1.50;;;;;;;14.84;81.84;98911.38;5054624;28;42186;-84
2023/08/08 00:13:07;;;;;;;3.07;1.47;;;;;;;14.78;82.17;98903.00;5055833;28;41806;-84
2023/08/08 00:15:35;;;;;;;1.00;1.00;;;;;;;14.82;81.98;98915.16;5072299;28;43011;-85
2023/08/08 00:18:04;;;;;;;1.47;1.33;;;;;;;14.79;81.87;98904.72;5055783;28;39033;-84
2023/08/08 00:20:32;;;;;;;1.57;1.47;;;;;;;14.74;83.37;98911.25;5071726;28;40725;-84
2023/08/08 00:23:00;;;;;;;1.83;1.33;;;;;;;14.69;83.66;98900.13;5089333;28;41579;-84
2023/08/08 00:25:28;;;;;;;1.23;1.10;;;;;;;14.62;83.73;98898.88;5054972;28;41259;-84
2023/08/08 00:27:56;;;;;;;2.17;1.30;;;;;;;14.62;83.38;98887.38;5073431;28;39858;-84
2023/08/08 00:30:23;;;;;;;1.00;0.90;;;;;;;14.61;83.33;98897.19;5056060;28;42021;-84
2023/08/08 00:32:51;;;;;;;1.30;1.20;;;;;;;14.60;83.43;98884.81;5072092;28;43370;-84
2023/08/08 00:35:20;;;;;;;1.00;0.80;;;;;;;14.60;83.16;98884.81;5072280;28;43159;-84
2023/08/08 00:37:47;;;;;;;1.00;0.90;;;;;;;14.57;82.75;98879.75;5039296;28;40274;-83
2023/08/08 00:40:15;;;;;;;0.90;0.77;;;;;;;14.61;83.00;98883.84;5072183;28;42746;-85
2023/08/08 00:42:42;;;;;;;1.10;1.00;;;;;;;14.68;82.79;98893.09;5056085;28;42852;-84
2023/08/08 00:45:11;;;;;;;1.17;1.07;;;;;;;14.60;83.34;98878.63;5056135;28;41175;-85
2023/08/08 00:47:39;;;;;;;1.10;1.00;;;;;;;14.61;83.25;98878.53;5056141;28;38846;-84
2023/08/08 00:50:07;;;;;;;1.30;1.17;;;;;;;14.62;83.64;98876.72;5075234;28;42728;-83
2023/08/08 00:52:38;;;;;;;3.30;1.27;;;;;;;14.49;83.63;98858.16;5055776;28;42841;-84
2023/08/08 00:55:07;;;;;;;1.07;0.90;;;;;;;14.58;83.38;98868.13;5056034;28;41111;-84
2023/08/08 00:57:38;;;;;;;1.37;1.27;;;;;;;14.68;83.72;98887.75;5056070;28;39087;-83
2023/08/08 01:00:07;;;;;;;1.30;1.10;;;;;;;14.64;82.99;98877.44;5055699;28;40535;-84
2023/08/08 01:02:35;;;;;;;1.47;1.37;;;;;;;14.62;83.37;98866.91;5072400;28;43100;-84
2023/08/08 01:05:03;;;;;;;1.23;1.13;;;;;;;14.71;82.90;98878.66;5062539;28;41165;-84
2023/08/08 01:07:38;;;;;;;2.43;1.07;;;;;;;14.64;83.18;98859.63;5057819;28;38920;-84
2023/08/08 01:10:10;;;;;;;0.90;0.90;;;;;;;14.72;83.12;98873.19;5068638;28;42054;-84
2023/08/08 01:12:42;;;;;;;1.30;1.20;;;;;;;14.66;82.99;98862.19;5071394;28;41754;-85
2023/08/08 01:15:12;;;;;;;1.30;1.10;;;;;;;14.75;82.80;98877.44;5060382;28;42354;-85
2023/08/08 01:17:41;;;;;;;1.17;1.07;;;;;;;14.77;82.95;98880.00;5055318;28;39089;-85
2023/08/08 01:20:10;;;;;;;1.30;1.03;;;;;;;14.67;82.46;98863.88;5055364;28;42149;-85
2023/08/08 01:22:49;;;;;;;1.47;1.20;;;;;;;14.70;82.46;98863.66;5071578;28;42983;-84
2023/08/08 01:25:19;;;;;;;1.23;1.07;;;;;;;14.63;82.79;98849.94;5071579;28;42112;-85
2023/08/08 01:27:47;;;;;;;1.50;1.40;;;;;;;14.58;82.79;98832.63;5054229;28;38308;-84
2023/08/08 01:30:14;;;;;;;1.30;1.20;;;;;;;14.72;82.64;98862.53;5071197;28;42726;-85
2023/08/08 01:32:42;;;;;;;1.03;1.00;;;;;;;14.73;82.80;98855.38;5053981;28;42430;-84
2023/08/08 01:35:10;;;;;;;1.80;1.40;;;;;;;14.86;82.90;98872.09;5054180;28;42362;-84
2023/08/08 01:37:42;;;;;;;2.17;1.10;;;;;;;14.81;82.95;98860.13;5071242;28;39671;-85
2023/08/08 01:40:13;;;;;;;2.27;1.60;;;;;;;14.85;83.24;98861.56;5068362;28;41704;-84
2023/08/08 01:42:44;;;;;;;1.33;1.20;;;;;;;14.85;83.19;98853.56;5055086;28;41156;-84
2023/08/08 01:45:12;;;;;;;1.40;1.30;;;;;;;14.71;83.45;98844.03;5063219;28;42360;-85
2023/08/08 01:47:41;;;;;;;2.23;1.20;;;;;;;14.81;83.03;98860.13;5055987;28;39147;-84
2023/08/08 01:50:09;;;;;;;1.67;1.00;;;;;;;14.70;83.13;98848.50;5055162;28;41970;-84
2023/08/08 01:52:37;;;;;;;2.43;1.27;;;;;;;14.67;83.21;98856.72;5086706;28;43155;-85
2023/08/08 01:55:06;;;;;;;1.17;1.07;;;;;;;14.65;83.34;98850.66;5053633;28;41480;-85
2023/08/08 01:57:33;;;;;;;1.23;1.13;;;;;;;14.53;83.24;98838.31;5053649;28;39240;-84
2023/08/08 02:00:04;;;;;;;1.40;1.30;;;;;;;14.73;83.19;98866.88;5053862;28;41871;-84
2023/08/08 02:02:43;;;;;;;1.30;1.20;;;;;;;14.74;83.11;98870.41;5070568;28;42021;-84
2023/08/08 02:05:10;;;;;;;1.40;1.30;;;;;;;14.63;82.95;98863.25;5061812;28;41306;-84
2023/08/08 02:07:38;;;;;;;1.37;1.23;;;;;;;14.72;82.73;98861.69;5054946;28;39137;-84
2023/08/08 02:10:06;;;;;;;1.63;1.00;;;;;;;14.65;82.86;98849.81;5054777;28;40561;-84
2023/08/08 02:12:33;;;;;;;1.57;1.47;;;;;;;14.61;82.78;98849.22;5104376;28;42480;-84
2023/08/08 02:15:04;;;;;;;0.70;0.70;;;;;;;14.53;82.82;98848.97;5053791;28;41453;-84
2023/08/08 02:17:31;;;;;;;1.10;1.03;;;;;;;14.49;82.43;98839.50;5070694;28;39698;-85
2023/08/08 02:19:59;;;;;;;1.00;0.83;;;;;;;14.55;82.84;98852.38;5053255;28;40642;-84
2023/08/08 02:22:26;;;;;;;0.80;0.80;;;;;;;14.45;83.02;98837.22;5052877;28;42904;-85
2023/08/08 02:24:54;;;;;;;1.10;1.00;;;;;;;14.30;83.03;98812.59;5070790;28;42216;-84
2023/08/08 02:27:21;;;;;;;1.20;1.10;;;;;;;14.43;82.92;98832.03;5053587;28;38773;-85
2023/08/08 02:29:49;;;;;;;1.63;1.00;;;;;;;14.51;82.50;98848.25;5053960;28;40603;-85
2023/08/08 02:32:18;;;;;;;1.40;1.20;;;;;;;14.52;82.51;98852.59;5053896;28;41403;-84
2023/08/08 02:34:45;;;;;;;1.17;1.03;;;;;;;14.49;82.69;98847.50;5053975;28;41149;-84
2023/08/08 02:37:14;;;;;;;1.47;0.90;;;;;;;14.42;82.75;98843.63;5070551;28;38963;-84
2023/08/08 02:39:42;;;;;;;1.43;1.13;;;;;;;14.37;82.73;98835.13;5054037;28;42964;-85
2023/08/08 02:42:10;;;;;;;1.37;1.23;;;;;;;14.41;83.00;98847.28;5087895;28;42810;-84
2023/08/08 02:44:37;;;;;;;1.43;0.90;;;;;;;14.25;82.57;98830.75;5054118;28;41331;-83
2023/08/08 02:47:06;;;;;;;1.23;0.93;;;;;;;14.28;82.71;98850.00;5054095;28;39119;-84
2023/08/08 02:49:35;;;;;;;1.10;1.00;;;;;;;14.21;82.69;98855.94;5054940;28;41106;-84
2023/08/08 02:52:02;;;;;;;1.60;1.50;;;;;;;14.24;82.35;98861.00;5070613;28;42896;-84
2023/08/08 02:54:33;;;;;;;1.10;1.00;;;;;;;14.16;82.34;98847.44;5071012;28;42696;-84
2023/08/08 02:57:01;;;;;;;1.53;1.00;;;;;;;14.25;82.37;98858.22;5054049;28;39206;-84
2023/08/08 02:59:30;;;;;;;1.10;1.00;;;;;;;14.14;82.24;98841.38;5055044;28;41796;-84
2023/08/08 03:01:57;;;;;;;1.37;1.20;;;;;;;14.22;82.06;98857.63;5075040;28;42676;-84
2023/08/08 03:04:25;;;;;;;1.10;1.00;;;;;;;14.11;82.22;98844.28;5059691;28;41537;-85
2023/08/08 03:06:54;;;;;;;1.30;1.20;;;;;;;14.18;82.34;98856.19;5054772;28;39422;-84
2023/08/08 03:09:22;;;;;;;1.27;1.00;;;;;;;14.16;82.03;98852.78;5054179;28;40696;-84
2023/08/08 03:11:49;;;;;;;2.40;1.23;;;;;;;14.17;81.91;98855.31;5085419;28;41778;-84
2023/08/08 03:14:17;;;;;;;1.10;1.00;;;;;;;14.07;82.18;98832.19;5053289;28;42593;-85
2023/08/08 03:16:45;;;;;;;1.60;1.03;;;;;;;14.06;81.91;98830.50;5053425;28;39288;-85
2023/08/08 03:19:13;;;;;;;1.93;1.07;;;;;;;14.07;82.15;98837.50;5053655;28;42522;-85
2023/08/08 03:21:41;;;;;;;0.93;0.93;;;;;;;14.13;82.26;98853.00;5053542;28;41438;-84
2023/08/08 03:24:10;;;;;;;1.10;0.80;;;;;;;13.98;82.25;98828.41;5053942;28;41363;-85
2023/08/08 03:26:38;;;;;;;1.27;1.17;;;;;;;14.11;82.07;98849.59;5053326;28;38888;-84
2023/08/08 03:29:09;;;;;;;1.87;1.10;;;;;;;13.93;81.96;98818.13;5070487;28;40695;-85
2023/08/08 03:31:41;;;;;;;1.23;1.13;;;;;;;14.14;82.36;98847.56;5053552;28;41773;-85
2023/08/08 03:34:08;;;;;;;1.47;1.20;;;;;;;14.13;81.95;98848.53;5070486;28;42853;-84
2023/08/08 03:36:36;;;;;;;1.03;0.93;;;;;;;14.10;81.86;98842.59;5056423;28;39010;-85
2023/08/08 03:39:08;;;;;;;0.77;0.70;;;;;;;14.14;81.57;98838.72;5057009;28;41582;-85
2023/08/08 03:41:37;;;;;;;1.33;0.90;;;;;;;14.18;81.56;98841.03;5057719;28;42805;-84
2023/08/08 03:44:05;;;;;;;1.17;1.00;;;;;;;14.23;81.54;98851.31;5057986;28;40882;-84
2023/08/08 03:46:33;;;;;;;1.37;1.20;;;;;;;14.32;82.26;98847.97;5057833;28;40045;-85
2023/08/08 03:49:01;;;;;;;1.13;1.07;;;;;;;14.38;81.65;98866.97;5057901;28;40954;-84
2023/08/08 03:51:28;;;;;;;1.33;1.23;;;;;;;14.32;81.51;98850.63;5108062;28;42576;-84
2023/08/08 03:53:57;;;;;;;1.10;1.00;;;;;;;14.38;81.28;98848.31;5057781;28;42492;-84
2023/08/08 03:56:24;;;;;;;3.40;1.27;;;;;;;14.40;81.31;98850.06;5057601;28;38764;-84
2023/08/08 03:58:53;;;;;;;1.10;1.00;;;;;;;14.44;81.57;98864.84;5057862;28;42084;-84
2023/08/08 04:01:21;;;;;;;1.73;1.47;;;;;;;14.39;81.34;98870.50;5074063;28;43459;-85
2023/08/08 04:03:48;;;;;;;1.40;1.10;;;;;;;14.27;81.71;98861.63;5057071;28;41255;-84
2023/08/08 04:06:16;;;;;;;0.70;0.70;;;;;;;14.16;81.84;98847.44;5057354;28;39176;-85
2023/08/08 04:08:43;;;;;;;0.97;0.97;;;;;;;14.18;81.67;98864.16;5057014;28;40701;-85
2023/08/08 04:11:11;;;;;;;1.13;0.83;;;;;;;14.12;81.86;98867.28;5055516;28;42139;-85
2023/08/08 04:13:38;;;;;;;1.37;0.90;;;;;;;14.00;82.08;98859.28;5055810;28;42431;-84
2023/08/08 04:16:07;;;;;;;1.67;0.83;;;;;;;13.88;82.02;98851.38;5055955;28;38589;-84
2023/08/08 04:18:35;;;;;;;0.80;0.73;;;;;;;13.91;82.16;98864.47;5055712;28;41322;-85
2023/08/08 04:21:02;;;;;;;0.80;0.80;;;;;;;13.78;82.58;98853.88;5055683;28;41740;-84
2023/08/08 04:23:30;;;;;;;1.30;1.07;;;;;;;13.44;82.91;98806.84;5073691;28;43247;-85
2023/08/08 04:25:57;;;;;;;1.80;1.23;;;;;;;13.70;82.98;98844.78;5055832;28;39076;-84
2023/08/08 04:28:25;;;;;;;2.00;1.17;;;;;;;13.74;82.96;98855.06;5055501;28;40623;-85
2023/08/08 04:30:52;;;;;;;0.93;0.93;;;;;;;13.64;83.43;98851.41;5055632;28;41782;-85
2023/08/08 04:33:21;;;;;;;1.17;1.07;;;;;;;13.69;83.35;98857.25;5055262;28;41193;-83
2023/08/08 04:35:49;;;;;;;1.77;0.90;;;;;;;13.73;83.43;98861.34;5055474;28;39201;-84
2023/08/08 04:38:16;;;;;;;0.80;0.80;;;;;;;13.74;83.34;98864.88;5055516;28;41171;-85
2023/08/08 04:40:44;;;;;;;1.27;1.17;;;;;;;13.70;83.39;98850.97;5056036;28;43909;-85
2023/08/08 04:43:11;;;;;;;1.07;0.97;;;;;;;13.79;83.46;98858.25;5056533;28;41102;-85
2023/08/08 04:45:39;;;;;;;1.83;1.00;;;;;;;13.73;83.44;98834.75;5056797;28;38991;-85
2023/08/08 04:48:07;;;;;;;1.50;1.00;;;;;;;13.80;83.62;98835.16;5056807;28;40584;-84
2023/08/08 04:50:36;;;;;;;2.57;1.27;;;;;;;13.75;83.21;98816.84;5056896;28;41622;-86
2023/08/08 04:53:03;;;;;;;1.20;1.00;;;;;;;14.09;82.89;98857.75;5055957;28;41104;-84
2023/08/08 04:55:31;;;;;;;1.10;1.00;;;;;;;14.13;82.82;98850.34;5073458;28;39100;-85
2023/08/08 04:57:58;;;;;;;2.00;1.07;;;;;;;14.18;82.65;98840.19;5073229;28;40406;-85
2023/08/08 05:00:27;;;;;;;0.90;0.90;;;;;;;14.33;82.29;98849.66;5056376;28;42997;-85
2023/08/08 05:02:55;;;;;;;1.87;1.17;;;;;;;14.43;82.10;98855.16;5056169;28;41082;-84
2023/08/08 05:05:22;;;;;;;1.37;0.97;;;;;;;14.51;81.81;98858.06;5056286;28;38944;-85
2023/08/08 05:07:51;;;;;;;1.30;1.10;;;;;;;14.51;81.42;98842.91;5056130;28;40661;-86
2023/08/08 05:10:19;;;;;;;1.00;0.90;;;;;;;14.59;81.42;98845.81;5054443;28;44121;-86
2023/08/08 05:12:46;;;;;;;1.03;0.87;;;;;;;14.69;80.92;98838.81;5054629;28;43266;-85
2023/08/08 05:15:13;;;;;;;1.40;1.10;;;;;;;14.75;80.79;98840.13;5055136;28;38972;-86
2023/08/08 05:17:41;;;;;;;0.87;0.80;;;;;;;14.94;80.40;98855.50;5055069;28;41862;-86
2023/08/08 05:20:09;;;;;;;1.17;1.00;;;;;;;14.89;80.31;98842.53;5054984;28;41473;-86
2023/08/08 05:22:37;;;;;;;1.63;0.70;;;;;;;14.92;80.39;98830.78;5054596;28;41204;-85
2023/08/08 05:25:10;;;;;;;1.43;1.00;;;;;;;15.15;79.89;98855.59;5054778;28;38526;-86
2023/08/08 05:27:38;;;;;;;1.30;1.00;;;;;;;15.13;79.36;98844.19;5054420;28;40673;-82
2023/08/08 05:30:06;;;;;;;1.17;1.07;;;;;;;15.21;79.49;98828.38;5072822;28;42688;-81
2023/08/08 05:32:34;;;;;;;0.67;0.67;;;;;;;15.33;79.13;98843.44;5071422;28;42315;-81
2023/08/08 05:35:04;;;;;;;0.73;0.73;;;;;;;15.45;78.72;98853.91;5071679;28;39903;-81
2023/08/08 05:37:31;;;;;;;0.97;0.90;;;;;;;15.52;78.60;98853.41;5072194;28;42008;-83
2023/08/08 05:39:59;;;;;;;1.47;0.80;;;;;;;15.50;78.35;98823.31;5054787;28;41771;-81
2023/08/08 05:42:27;;;;;;;1.60;1.30;;;;;;;15.70;78.12;98849.25;5055084;28;41208;-82
2023/08/08 05:44:55;;;;;;;0.90;0.90;;;;;;;15.79;78.14;98853.81;5055620;28;41419;-81
2023/08/08 05:47:22;;;;;;;1.13;1.00;;;;;;;15.79;77.66;98827.97;5073215;28;42781;-80
2023/08/08 05:49:50;;;;;;;1.00;0.73;;;;;;;16.00;77.61;98852.00;5072259;28;43249;-81
2023/08/08 05:52:17;;;;;;;1.43;0.97;;;;;;;16.05;77.26;98836.44;5054631;28;42369;-81
2023/08/08 05:54:45;;;;;;;0.80;0.80;;;;;;;16.33;76.79;98858.09;5055528;28;40311;-81
2023/08/08 05:57:12;;;;;;;1.40;1.30;;;;;;;16.49;76.25;98848.63;5054047;28;40866;-81
2023/08/08 05:59:44;;;;;;;1.03;0.80;;;;;;;16.67;76.01;98851.59;5055153;28;41804;-81
2023/08/08 06:02:12;;;;;;;1.00;0.90;;;;;;;16.75;75.37;98854.41;5054925;28;41302;-81
2023/08/08 06:04:39;;;;;;;1.83;1.00;;;;;;;16.82;74.70;98844.00;5055163;28;38961;-79
2023/08/08 06:07:07;;;;;;;1.00;0.80;;;;;;;16.90;74.52;98846.88;5054385;28;41067;-81
2023/08/08 06:09:36;;;;;;;2.77;0.90;;;;;;;17.00;74.66;98849.59;5070800;28;43759;-81
2023/08/08 06:12:04;;;;;;;1.13;0.90;;;;;;;17.13;74.67;98852.84;5070032;28;40687;-82
2023/08/08 06:14:32;;;;;;;0.93;0.87;;;;;;;17.16;74.36;98841.88;5070763;28;40775;-82
2023/08/08 06:17:01;;;;;;;0.80;0.80;;;;;;;17.37;74.45;98856.00;5071505;28;41867;-82
2023/08/08 06:19:28;;;;;;;2.17;0.90;;;;;;;17.55;72.64;98859.69;5054204;28;43063;-81
2023/08/08 06:21:56;;;;;;;1.00;0.77;;;;;;;17.72;71.68;98850.13;5072792;28;42927;-81
2023/08/08 06:24:23;;;;;;;1.10;0.90;;;;;;;17.86;70.78;98862.25;5073926;28;39902;-82
2023/08/08 06:26:51;;;;;;;1.00;0.90;;;;;;;18.00;70.70;98859.16;5053735;28;41150;-81
2023/08/08 06:29:18;;;;;;;1.13;0.77;;;;;;;18.13;69.95;98851.66;5053737;28;41802;-81
2023/08/08 06:31:46;;;;;;;1.77;0.70;;;;;;;18.27;69.15;98855.75;5053344;28;41048;-81
2023/08/08 06:34:15;;;;;;;0.60;0.60;;;;;;;18.46;68.10;98862.88;5053759;28;38958;-81
2023/08/08 06:36:42;;;;;;;0.90;0.90;;;;;;;18.77;66.71;98858.16;5069975;28;42533;-81
2023/08/08 06:39:11;;;;;;;0.60;0.60;;;;;;;19.26;64.10;98859.59;5070303;28;42404;-81
2023/08/08 06:41:39;;;;;;;1.37;0.77;;;;;;;19.88;61.45;98882.09;5070811;28;43224;-81
2023/08/08 06:44:09;;;;;;;1.20;0.90;;;;;;;20.47;60.44;98877.88;5071532;28;38861;-82
2023/08/08 06:46:36;;;;;;;1.00;0.80;;;;;;;20.81;59.10;98903.00;5054173;28;40737;-81
2023/08/08 06:49:04;;;;;;;1.43;0.77;;;;;;;20.69;59.36;98893.50;5071083;28;42706;-82
2023/08/08 06:51:33;;;;;;;1.47;0.77;;;;;;;20.54;58.91;98895.06;5053791;28;41407;-81
2023/08/08 06:54:00;;;;;;;2.00;1.10;;;;;;;20.20;57.83;98871.59;5069688;28;39026;-81
2023/08/08 06:56:28;;;;;;;0.80;0.80;;;;;;;20.21;57.82;98883.22;5052981;28;42086;-81
2023/08/08 06:58:55;;;;;;;0.80;0.70;;;;;;;20.19;58.69;98887.91;5052963;28;43646;-81
2023/08/08 07:01:23;;;;;;;0.70;0.60;;;;;;;20.15;59.17;98889.22;5070160;28;42328;-82
2023/08/08 07:03:50;;;;;;;0.77;0.63;;;;;;;20.07;59.70;98881.91;5069957;28;41041;-81
2023/08/08 07:06:19;;;;;;;1.63;0.90;;;;;;;20.00;58.67;98886.25;5069732;28;41844;-80
2023/08/08 07:08:48;;;;;;;2.07;0.90;;;;;;;20.02;58.30;98884.25;5070709;28;41625;-80
2023/08/08 07:11:15;;;;;;;1.10;1.00;;;;;;;20.11;59.51;98880.63;5056803;28;41370;-80
2023/08/08 07:13:42;;;;;;;0.60;0.57;;;;;;;20.14;59.33;98866.03;5073627;28;42379;-81
2023/08/08 07:16:10;;;;;;;0.70;0.70;;;;;;;20.32;58.50;98881.13;5074733;28;42752;-82
2023/08/08 07:18:38;;;;;;;0.70;0.60;;;;;;;20.36;59.14;98862.84;5074665;28;42745;-81
2023/08/08 07:21:06;;;;;;;1.03;0.70;;;;;;;20.43;58.67;98862.06;5073453;28;43141;-81
2023/08/08 07:23:33;;;;;;;0.93;0.80;;;;;;;20.59;58.10;98873.94;5073078;28;39630;-81
2023/08/08 07:26:02;;;;;;;1.03;0.90;;;;;;;20.48;57.88;98847.28;5074191;28;41608;-80
2023/08/08 07:28:29;;;;;;;0.70;0.70;;;;;;;20.56;57.29;98852.72;5073068;28;43702;-81
2023/08/08 07:30:57;;;;;;;0.73;0.53;;;;;;;20.71;57.08;98869.97;5073129;28;41273;-81
2023/08/08 07:33:24;;;;;;;1.00;0.90;;;;;;;20.85;56.40;98874.75;5073071;28;41016;-81
2023/08/08 07:35:52;;;;;;;1.40;0.80;;;;;;;21.00;55.17;98881.25;5073077;28;41837;-81
2023/08/08 07:38:19;;;;;;;0.80;0.70;;;;;;;21.17;56.08;98877.59;5072940;28;41754;-80
2023/08/08 07:40:47;;;;;;;1.03;0.80;;;;;;;21.37;55.83;98867.44;5056959;28;41229;-80
2023/08/08 07:43:16;;;;;;;1.00;0.67;;;;;;;21.51;54.76;98885.63;5074975;28;41108;-81
2023/08/08 07:45:44;;;;;;;0.80;0.67;;;;;;;21.38;53.97;98884.44;5073851;28;40569;-80
2023/08/08 07:48:12;;;;;;;1.53;0.90;;;;;;;21.20;53.36;98881.00;5056977;28;41824;-80
2023/08/08 07:50:39;;;;;;;1.17;0.50;;;;;;;21.10;53.46;98883.81;5057288;28;41381;-80
2023/08/08 07:53:06;;;;;;;0.97;0.60;;;;;;;21.31;52.77;98875.31;5056305;28;38919;-80
2023/08/08 07:55:34;;;;;;;0.60;0.60;;;;;;;21.57;51.53;98894.94;5056799;28;40774;-80
2023/08/08 07:58:01;;;;;;;1.07;0.80;;;;;;;21.75;50.49;98887.56;5073435;28;42028;-80
2023/08/08 08:00:30;;;;;;;0.90;0.67;;;;;;;22.03;49.44;98908.84;5056979;28;40833;-79
2023/08/08 08:02:58;;;;;;;0.77;0.77;;;;;;;22.24;49.35;98902.97;5073572;28;40341;-81
2023/08/08 08:05:25;;;;;;;0.70;0.70;;;;;;;22.37;50.14;98896.06;5055878;28;41199;-80
2023/08/08 08:07:53;;;;;;;1.10;0.70;;;;;;;22.56;48.36;98908.34;5072023;28;42542;-79
2023/08/08 08:10:20;;;;;;;0.67;0.60;;;;;;;23.01;47.84;98905.06;5073760;28;43353;-82
2023/08/08 08:12:47;;;;;;;1.40;0.70;;;;;;;23.31;46.07;98898.03;5072686;28;40253;-82
2023/08/08 08:15:15;;;;;;;0.67;0.63;;;;;;;23.59;46.28;98918.22;5072776;28;42017;-81
2023/08/08 08:17:44;;;;;;;0.77;0.77;;;;;;;23.62;45.85;98895.38;5072257;28;43011;-81
2023/08/08 08:20:12;;;;;;;0.50;0.50;;;;;;;23.97;46.10;98918.31;5071889;28;41199;-81
2023/08/08 08:22:39;;;;;;;0.60;0.60;;;;;;;24.33;45.77;98921.28;5071799;28;38884;-80
2023/08/08 08:25:09;;;;;;;0.77;0.77;;;;;;;24.23;44.11;98926.13;5073201;28;41986;-80
2023/08/08 08:27:37;;;;;;;0.60;0.60;;;;;;;24.37;44.85;98922.59;5072102;28;43438;-81
2023/08/08 08:30:05;;;;;;;0.77;0.50;;;;;;;24.93;43.94;98913.13;5072529;28;42252;-80
2023/08/08 08:32:34;;;;;;;1.03;0.60;;;;;;;25.12;42.64;98922.56;5106153;28;40940;-81
2023/08/08 08:35:06;;;;;;;0.60;0.60;;;;;;;25.74;42.68;98922.97;5073360;28;41970;-81
2023/08/08 08:37:33;;;;;;;0.90;0.70;;;;;;;25.61;42.36;98905.72;5055656;28;41872;-82
2023/08/08 08:40:01;;;;;;;1.43;0.70;;;;;;;26.41;40.24;98924.53;5072336;28;42576;-81
2023/08/08 08:42:30;;;;;;;1.13;0.80;;;;;;;26.40;40.50;98914.72;5055606;28;39124;-81
2023/08/08 08:44:59;;;;;;;0.80;0.80;;;;;;;27.23;39.23;98919.31;5072948;28;41968;-82
2023/08/08 08:47:30;;;;;;;0.60;0.53;;;;;;;27.20;38.03;98930.59;5055708;28;41691;-81
2023/08/08 08:49:58;;;;;;;0.87;0.87;;;;;;;27.04;36.47;98941.78;5056194;28;41390;-79
2023/08/08 08:52:27;;;;;;;1.17;0.87;;;;;;;27.02;38.42;98927.56;5055357;28;39058;-81
2023/08/08 08:54:55;;;;;;;0.87;0.70;;;;;;;27.05;38.66;98929.88;5056109;28;41121;-81
2023/08/08 08:57:24;;;;;;;0.70;0.70;;;;;;;26.92;37.80;98918.88;5055871;28;43417;-81
2023/08/08 08:59:51;;;;;;;1.17;0.70;;;;;;;27.07;37.38;98931.38;5073851;28;42598;-81
2023/08/08 09:02:19;;;;;;;0.90;0.70;;;;;;;27.29;38.12;98923.97;5072890;28;39887;-81
2023/08/08 09:04:48;;;;;;;0.50;0.50;;;;;;;27.67;37.38;98920.81;5072470;28;40906;-81
2023/08/08 09:07:20;;;;;;;1.57;0.70;;;;;;;28.14;36.94;98937.06;5072400;28;43593;-81
2023/08/08 09:09:49;;;;;;;0.60;0.60;;;;;;;28.87;35.60;98940.75;5071181;28;41468;-81
2023/08/08 09:12:17;;;;;;;0.60;0.60;;;;;;;29.61;33.80;98948.56;5071847;28;39714;-81
2023/08/08 09:14:45;;;;;;;1.30;0.73;;;;;;;30.09;32.21;98942.69;5054558;28;42035;-80
2023/08/08 09:17:13;;;;;;;0.90;0.90;;;;;;;31.00;31.10;98951.28;5071224;28;43837;-81
2023/08/08 09:19:43;;;;;;;1.00;0.90;;;;;;;32.68;30.15;98957.00;5072627;28;42133;-81
2023/08/08 09:22:12;;;;;;;1.08;0.80;;;;;;;34.59;26.81;98974.41;5054202;28;39939;-81
2023/08/08 09:24:41;;;;;;;1.08;1.00;;;;;;;36.23;25.05;98979.31;5071195;28;41903;-83
2023/08/08 09:27:10;;;;;;;0.63;0.63;;;;;;;36.95;23.61;98981.72;5071949;28;43849;-82
2023/08/08 09:29:38;;;;;;;0.60;0.60;;;;;;;36.37;22.97;98980.59;5071971;28;43150;-82
2023/08/08 09:32:07;;;;;;;0.90;0.70;;;;;;;35.97;23.42;98969.94;5071041;28;41031;-82
2023/08/08 09:34:34;;;;;;;0.50;0.50;;;;;;;35.44;24.79;98954.88;5070769;28;42164;-82
2023/08/08 09:37:02;;;;;;;0.50;0.50;;;;;;;34.94;25.36;98952.19;5053649;28;43533;-82
2023/08/08 09:39:30;;;;;;;0.55;0.50;;;;;;;34.64;25.22;98932.38;5072094;28;41957;-81
2023/08/08 09:41:57;;;;;;;0.80;0.70;;;;;;;34.37;25.99;98924.75;5072839;28;39928;-82
2023/08/08 09:44:29;;;;;;;1.00;0.77;;;;;;;34.23;26.22;98923.41;5071979;28;40775;-82
2023/08/08 09:46:57;;;;;;;1.03;0.70;;;;;;;34.05;26.26;98907.09;5054860;28;41570;-81
2023/08/08 09:49:24;;;;;;;0.97;0.70;;;;;;;33.57;25.74;98924.81;5073190;28;43222;-81
2023/08/08 09:51:54;;;;;;;0.67;0.67;;;;;;;33.07;26.26;98913.50;5071166;28;40000;-83
2023/08/08 09:54:47;;;;;;;0.50;0.50;;;;;;;32.33;26.25;98884.81;5009880;28;41451;-82
2023/08/08 09:57:15;;;;;;;0.50;0.50;;;;;;;32.00;26.49;98915.44;5048779;28;42196;-81
2023/08/08 09:59:46;;;;;;;0.73;0.60;;;;;;;31.33;26.50;98914.56;5037433;28;42404;-82
2023/08/08 10:02:16;;;;;;;0.50;0.50;;;;;;;30.77;26.73;98904.59;5053802;28;40260;-81
2023/08/08 10:04:44;;;;;;;0.60;0.60;;;;;;;30.39;26.97;98901.09;5054090;28;40774;-82
2023/08/08 10:07:12;;;;;;;0.93;0.60;;;;;;;30.34;28.06;98915.44;5086780;28;42879;-82
2023/08/08 10:09:40;;;;;;;0.70;0.70;;;;;;;30.03;27.84;98910.81;5052622;28;41521;-80
2023/08/08 10:12:09;;;;;;;1.60;0.70;;;;;;;29.62;28.05;98917.50;5051754;28;40758;-81
2023/08/08 10:14:39;;;;;;;0.97;0.57;;;;;;;29.44;28.62;98917.34;5036281;28;40739;-78
2023/08/08 10:17:08;;;;;;;0.87;0.60;;;;;;;29.03;29.20;98893.13;5051850;28;41751;-82
2023/08/08 10:19:36;;;;;;;0.70;0.60;;;;;;;29.00;29.97;98900.88;5052003;28;41026;-82
2023/08/08 10:22:05;;;;;;;1.00;0.53;;;;;;;28.90;29.33;98885.81;5069284;28;40351;-82
2023/08/08 10:24:35;;;;;;;1.50;0.73;;;;;;;29.22;30.25;98888.63;5069339;28;41265;-80
2023/08/08 10:27:04;;;;;;;1.20;0.60;;;;;;;29.39;29.88;98899.97;5051911;28;41901;-80
2023/08/08 10:29:34;;;;;;;1.70;0.80;;;;;;;29.43;29.36;98901.19;5052545;28;41025;-81
2023/08/08 10:32:03;;;;;;;0.97;0.90;;;;;;;29.39;29.05;98902.69;5059174;28;39250;-81
2023/08/08 10:34:41;;;;;;;0.70;0.60;;;;;;;29.37;28.70;98902.03;5071561;28;42053;-81
2023/08/08 10:37:12;;;;;;;1.30;0.67;;;;;;;29.33;29.65;98893.44;5070503;28;41677;-81
2023/08/08 10:39:51;;;;;;;0.93;0.60;;;;;;;29.33;29.21;98896.16;5070588;28;42602;-82
2023/08/08 10:42:20;;;;;;;0.60;0.60;;;;;;;29.36;29.11;98901.19;5070428;28;39983;-82
2023/08/08 10:44:53;;;;;;;1.97;0.73;;;;;;;29.42;28.25;98907.72;5070427;28;40888;-79
2023/08/08 10:47:23;;;;;;;1.57;0.80;;;;;;;29.34;29.25;98892.38;5054124;28;42889;-82
2023/08/08 10:50:00;;;;;;;1.30;0.70;;;;;;;29.20;29.23;98849.81;5071066;28;42119;-81
2023/08/08 10:52:27;;;;;;;0.63;0.63;;;;;;;29.61;29.54;98880.34;5068670;28;39897;-81
2023/08/08 10:54:56;;;;;;;0.67;0.60;;;;;;;29.69;29.75;98872.94;5073032;28;21099;-82
2023/08/08 10:57:26;;;;;;;0.70;0.67;;;;;;;29.77;28.67;98880.91;5071834;28;44016;-81
2023/08/08 10:59:54;;;;;;;0.97;0.80;;;;;;;30.01;28.61;98899.28;5071051;28;42223;-81
2023/08/08 11:02:21;;;;;;;0.93;0.63;;;;;;;30.17;28.84;98884.22;5071080;28;39701;-81
2023/08/08 11:04:50;;;;;;;1.50;1.00;;;;;;;30.44;28.75;98895.78;5071919;28;41961;-82
2023/08/08 11:07:19;;;;;;;0.90;0.90;;;;;;;30.56;27.88;98902.25;5070564;28;41830;-80
2023/08/08 11:09:46;;;;;;;1.10;1.00;;;;;;;30.67;28.08;98909.72;5069276;28;42576;-81
2023/08/08 11:12:17;;;;;;;1.17;0.80;;;;;;;30.80;28.34;98879.50;5052311;28;38393;-81
2023/08/08 11:14:44;;;;;;;1.47;0.80;;;;;;;31.35;27.81;98888.63;5053685;28;42239;-80
2023/08/08 11:17:13;;;;;;;1.43;0.90;;;;;;;32.03;27.07;98899.34;5070570;28;43006;-80
2023/08/08 11:19:41;;;;;;;0.87;0.70;;;;;;;32.56;26.17;98905.94;5053073;28;41149;-81
2023/08/08 11:22:12;;;;;;;1.07;0.80;;;;;;;32.86;25.77;98906.72;5069354;28;38558;-80
2023/08/08 11:24:41;;;;;;;0.97;0.90;;;;;;;33.10;26.04;98900.16;5070991;28;42644;-80
2023/08/08 11:27:08;;;;;;;1.00;0.93;;;;;;;33.51;24.94;98901.03;5070293;28;42894;-82
2023/08/08 11:29:36;;;;;;;1.03;0.90;;;;;;;33.34;25.17;98900.16;5052784;28;40929;-80
2023/08/08 11:32:04;;;;;;;0.80;0.80;;;;;;;33.06;24.96;98877.00;5069658;28;39995;-81
2023/08/08 11:34:32;;;;;;;0.77;0.77;;;;;;;33.01;26.21;98895.28;5070626;28;42721;-79
2023/08/08 11:37:01;;;;;;;1.80;0.90;;;;;;;32.71;26.35;98884.38;5070420;28;42711;-83
2023/08/08 11:39:30;;;;;;;2.13;0.77;;;;;;;32.59;26.17;98894.50;5069433;28;42141;-81